Time;durP1;ratioP1;P1;durP2;ratioP2;P2;SDS_P1;SDS_P2;PMS_P1;PMS_P2;Temp;Humidity;BMP_temperature;BMP_pressure;BME280_temperature;BME280_humidity;BME280_pressure;Samples;Min_cycle;Max_cycle;Signal;HPM_P1;HPM_P2
2023/08/18 00:02:24;;;;;;;14.57;9.23;;;;;;;25.99;60.07;100580.13;4972357;28;20617;-79
2023/08/18 00:04:50;;;;;;;15.23;8.77;;;;;;;26.06;60.42;100590.25;4972123;28;20418;-79
2023/08/18 00:07:15;;;;;;;24.67;9.60;;;;;;;26.01;60.30;100576.31;4972190;28;20031;-78
2023/08/18 00:09:43;;;;;;;20.45;8.75;;;;;;;26.09;60.61;100589.81;4971936;28;20023;-80
2023/08/18 00:12:09;;;;;;;16.02;8.88;;;;;;;26.11;60.76;100598.72;4964041;28;20652;-79
2023/08/18 00:14:34;;;;;;;14.63;8.45;;;;;;;26.05;61.26;100574.81;4952345;28;20031;-80
2023/08/18 00:17:00;;;;;;;19.85;9.85;;;;;;;26.12;61.23;100578.31;4952403;28;20688;-79
2023/08/18 00:19:26;;;;;;;21.92;8.30;;;;;;;26.13;60.88;100583.63;4952477;28;20145;-79
2023/08/18 00:21:51;;;;;;;15.40;8.98;;;;;;;26.24;60.62;100587.56;4952187;28;20047;-81
2023/08/18 00:24:16;;;;;;;18.25;8.80;;;;;;;26.16;61.32;100585.13;4952051;28;20032;-79
2023/08/18 00:26:42;;;;;;;16.38;8.65;;;;;;;26.17;61.55;100600.59;4953324;28;20030;-79
2023/08/18 00:29:07;;;;;;;16.50;8.48;;;;;;;26.18;61.50;100592.06;4952358;28;20033;-79
2023/08/18 00:31:33;;;;;;;14.52;8.80;;;;;;;26.13;61.84;100593.81;4952131;28;20043;-79
2023/08/18 00:33:58;;;;;;;21.58;10.60;;;;;;;26.17;61.70;100576.63;4952505;28;20062;-79
2023/08/18 00:36:25;;;;;;;17.27;8.82;;;;;;;26.18;61.70;100580.19;4952349;29;20035;-81
2023/08/18 00:38:51;;;;;;;17.85;8.82;;;;;;;26.03;62.07;100572.25;4952577;28;20062;-79
2023/08/18 00:41:16;;;;;;;14.75;9.27;;;;;;;26.09;62.62;100573.25;4952166;28;20069;-80
2023/08/18 00:43:42;;;;;;;22.45;12.60;;;;;;;26.07;62.40;100570.75;4952657;28;20452;-79
2023/08/18 00:46:09;;;;;;;17.33;9.82;;;;;;;25.98;62.41;100564.69;4952240;28;20035;-79
2023/08/18 00:48:36;;;;;;;14.18;8.90;;;;;;;26.05;62.44;100572.91;4958533;28;20467;-79
2023/08/18 00:51:02;;;;;;;11.68;8.38;;;;;;;26.01;62.96;100579.94;4971267;28;20372;-79
2023/08/18 00:53:30;;;;;;;17.27;10.07;;;;;;;25.97;63.09;100573.16;4971663;28;20035;-79
2023/08/18 00:55:55;;;;;;;24.05;10.07;;;;;;;25.97;63.26;100581.44;4971320;28;20033;-79
2023/08/18 00:58:21;;;;;;;14.05;9.70;;;;;;;25.89;63.58;100579.84;4969085;28;20105;-79
2023/08/18 01:00:49;;;;;;;19.35;9.55;;;;;;;25.82;63.79;100572.69;4971294;28;20559;-79
2023/08/18 01:03:14;;;;;;;21.73;9.70;;;;;;;25.92;63.70;100584.03;4970950;28;20065;-80
2023/08/18 01:05:40;;;;;;;15.40;9.45;;;;;;;25.96;63.68;100582.53;4952827;28;20046;-79
2023/08/18 01:08:05;;;;;;;18.20;8.68;;;;;;;25.86;64.03;100569.25;4971281;28;20029;-80
2023/08/18 01:10:42;;;;;;;22.20;9.60;;;;;;;25.92;64.27;100579.38;4971028;28;20491;-79
2023/08/18 01:13:15;;;;;;;14.65;8.70;;;;;;;25.85;64.53;100583.25;4970735;28;20058;-78
2023/08/18 01:15:44;;;;;;;13.48;9.60;;;;;;;25.83;64.72;100583.50;4971206;28;20545;-79
2023/08/18 01:18:11;;;;;;;12.88;9.45;;;;;;;25.74;65.21;100572.97;4971655;28;20398;-78
2023/08/18 01:20:37;;;;;;;10.48;8.73;;;;;;;25.74;65.42;100576.56;4970913;28;20058;-79
2023/08/18 01:23:04;;;;;;;11.55;8.98;;;;;;;25.74;65.67;100581.22;4971234;28;20030;-79
2023/08/18 01:25:30;;;;;;;17.63;9.30;;;;;;;25.68;65.78;100571.97;4970931;28;20066;-79
2023/08/18 01:27:58;;;;;;;12.63;9.70;;;;;;;25.68;65.94;100580.22;4970963;28;20058;-79
2023/08/18 01:30:31;;;;;;;15.15;9.27;;;;;;;25.68;66.15;100577.47;4971276;28;20030;-79
2023/08/18 01:33:03;;;;;;;15.25;9.75;;;;;;;25.50;66.87;100580.16;4971141;28;20058;-80
2023/08/18 01:35:29;;;;;;;;;;;;;;;25.51;67.20;100572.72;4970707;28;20110;-79
2023/08/18 01:37:57;;;;;;;19.00;10.15;;;;;;;25.48;67.32;100573.97;4971242;28;19910;-79
2023/08/18 01:40:29;;;;;;;22.90;9.85;;;;;;;25.34;68.06;100581.50;4970731;28;20019;-79
2023/08/18 01:42:55;;;;;;;18.10;9.98;;;;;;;25.22;68.83;100574.16;4971224;28;20030;-79
2023/08/18 01:45:20;;;;;;;16.17;10.27;;;;;;;25.21;69.15;100570.56;4970710;28;20023;-80
2023/08/18 01:47:46;;;;;;;19.17;9.93;;;;;;;25.07;70.15;100557.97;4970147;28;20038;-79
2023/08/18 01:50:11;;;;;;;23.23;9.93;;;;;;;25.08;70.36;100565.13;4951097;28;20031;-79
2023/08/18 01:52:37;;;;;;;19.23;10.45;;;;;;;25.16;70.17;100569.53;4951688;28;20070;-80
2023/08/18 01:55:03;;;;;;;19.85;10.48;;;;;;;25.15;70.75;100560.44;4951589;28;20031;-80
2023/08/18 01:57:28;;;;;;;15.68;10.50;;;;;;;25.23;70.80;100573.09;4951670;28;20086;-79
2023/08/18 01:59:54;;;;;;;17.73;10.00;;;;;;;25.13;71.58;100576.34;4951525;29;20023;-79
2023/08/18 02:02:19;;;;;;;13.93;9.55;;;;;;;25.06;72.36;100582.94;4955249;28;20078;-79
2023/08/18 02:04:45;;;;;;;14.55;10.15;;;;;;;25.02;72.87;100570.66;4969981;28;20038;-79
2023/08/18 02:07:10;;;;;;;19.63;10.48;;;;;;;24.93;73.71;100564.59;4991353;28;20023;-78
2023/08/18 02:09:38;;;;;;;18.23;11.75;;;;;;;24.98;73.43;100570.28;4987227;28;20632;-80
2023/08/18 02:12:04;;;;;;;16.10;10.30;;;;;;;24.92;74.41;100560.97;4982011;28;20046;-83
2023/08/18 02:14:29;;;;;;;13.90;10.00;;;;;;;24.87;74.73;100557.22;4972033;28;20371;-79
2023/08/18 02:16:56;;;;;;;19.40;10.77;;;;;;;24.81;75.57;100567.19;4973218;28;20498;-81
2023/08/18 02:19:22;;;;;;;16.98;11.65;;;;;;;24.87;75.08;100571.81;4972789;28;20032;-81
2023/08/18 02:21:48;;;;;;;21.35;11.35;;;;;;;24.81;76.02;100569.09;4971936;28;20063;-81
2023/08/18 02:24:14;;;;;;;16.83;10.25;;;;;;;24.73;76.75;100567.41;4971142;28;20026;-81
2023/08/18 02:26:40;;;;;;;19.60;12.02;;;;;;;24.75;76.91;100562.53;4970474;28;20034;-81
2023/08/18 02:29:05;;;;;;;17.70;11.90;;;;;;;24.76;77.23;100568.88;4970210;28;20034;-82
2023/08/18 02:31:30;;;;;;;16.25;10.18;;;;;;;24.80;76.63;100570.09;4969797;28;20497;-81
2023/08/18 02:33:56;;;;;;;15.07;10.27;;;;;;;24.77;76.82;100573.28;4970255;28;20022;-82
2023/08/18 02:36:21;;;;;;;21.42;10.80;;;;;;;24.80;76.86;100584.72;4969835;28;20471;-81
2023/08/18 02:38:47;;;;;;;20.73;11.43;;;;;;;24.74;77.74;100595.75;4970031;28;20027;-82
2023/08/18 02:41:12;;;;;;;26.75;11.25;;;;;;;24.70;78.09;100589.84;4970173;28;20031;-81
2023/08/18 02:43:38;;;;;;;16.13;10.48;;;;;;;24.70;78.00;100591.75;4970176;28;20019;-81
2023/08/18 02:46:04;;;;;;;19.80;9.88;;;;;;;24.65;77.94;100600.66;4969739;28;20089;-80
2023/08/18 02:48:30;;;;;;;16.58;9.90;;;;;;;24.60;77.63;100583.97;4973011;28;20039;-80
2023/08/18 02:51:07;;;;;;;21.80;9.32;;;;;;;24.64;78.26;100601.72;4971369;28;20422;-79
2023/08/18 02:53:33;;;;;;;19.10;10.43;;;;;;;24.72;77.38;100606.97;4973124;28;20031;-81
2023/08/18 02:55:58;;;;;;;21.35;10.52;;;;;;;24.75;77.38;100602.94;4972869;28;20034;-80
2023/08/18 02:58:28;;;;;;;18.48;10.93;;;;;;;24.79;76.35;100602.31;4973166;28;20026;-80
2023/08/18 03:01:05;;;;;;;15.27;9.98;;;;;;;24.81;76.38;100599.34;4962501;28;20507;-79
2023/08/18 03:03:30;;;;;;;13.80;9.48;;;;;;;24.81;76.39;100608.44;4953597;28;20495;-81
2023/08/18 03:06:04;;;;;;;17.60;10.05;;;;;;;24.90;75.34;100603.53;4953615;28;20030;-80
2023/08/18 03:08:29;;;;;;;16.00;9.68;;;;;;;24.83;75.91;100611.81;4953751;28;20078;-81
2023/08/18 03:11:00;;;;;;;19.77;9.63;;;;;;;24.84;76.22;100615.44;4953691;28;20054;-80
2023/08/18 03:13:26;;;;;;;19.20;9.52;;;;;;;24.86;75.90;100619.63;4966705;28;20027;-81
2023/08/18 03:15:52;;;;;;;15.68;8.93;;;;;;;24.93;75.83;100611.38;4972812;28;20027;-80
2023/08/18 03:18:18;;;;;;;19.15;9.45;;;;;;;24.98;76.15;100635.50;4972914;28;20042;-80
2023/08/18 03:20:46;;;;;;;18.80;10.15;;;;;;;24.89;76.24;100619.22;4972755;28;20046;-81
2023/08/18 03:23:14;;;;;;;24.67;9.70;;;;;;;24.95;76.00;100633.19;4972751;28;20054;-82
2023/08/18 03:25:39;;;;;;;26.98;12.00;;;;;;;24.99;75.81;100639.91;4973395;28;20038;-83
2023/08/18 03:28:05;;;;;;;35.08;17.10;;;;;;;24.92;75.81;100627.03;4973136;28;20105;-81
2023/08/18 03:30:30;;;;;;;24.27;13.52;;;;;;;24.92;76.01;100632.53;4972747;28;20031;-84
2023/08/18 03:32:57;;;;;;;20.13;10.65;;;;;;;24.86;75.69;100622.38;4972638;28;20044;-83
2023/08/18 03:35:22;;;;;;;18.42;10.35;;;;;;;24.97;75.54;100631.03;4972710;28;20475;-82
2023/08/18 03:37:48;;;;;;;16.23;9.70;;;;;;;24.81;77.01;100635.97;4973482;28;20157;-82
2023/08/18 03:40:14;;;;;;;32.88;12.30;;;;;;;24.85;76.41;100637.22;4986476;28;20047;-82
2023/08/18 03:42:39;;;;;;;22.15;12.00;;;;;;;24.88;76.79;100650.56;4972649;28;20022;-83
2023/08/18 03:45:05;;;;;;;14.38;9.35;;;;;;;24.88;76.62;100642.31;4972673;28;20062;-82
2023/08/18 03:47:31;;;;;;;18.55;10.07;;;;;;;24.86;76.92;100638.91;4972311;28;20018;-82
2023/08/18 03:49:56;;;;;;;21.63;9.82;;;;;;;24.99;76.41;100654.53;4959100;28;20050;-82
2023/08/18 03:52:22;;;;;;;27.10;11.77;;;;;;;24.98;75.97;100657.50;4953048;29;20043;-82
2023/08/18 03:54:47;;;;;;;22.35;11.77;;;;;;;24.95;75.93;100635.94;4953043;28;20035;-82
2023/08/18 03:57:12;;;;;;;19.27;10.38;;;;;;;24.96;76.61;100648.59;4954278;28;20042;-81
2023/08/18 03:59:39;;;;;;;20.67;11.73;;;;;;;24.98;76.00;100652.84;4951778;28;20029;-81
2023/08/18 04:02:04;;;;;;;54.50;14.15;;;;;;;25.04;75.74;100656.63;4952996;28;20082;-82
2023/08/18 04:04:30;;;;;;;25.60;10.82;;;;;;;25.04;75.82;100643.72;4952913;28;20062;-79
2023/08/18 04:06:55;;;;;;;29.90;12.18;;;;;;;25.11;75.71;100660.19;4953777;28;20500;-80
2023/08/18 04:09:21;;;;;;;19.92;10.38;;;;;;;25.13;75.38;100650.66;4968201;28;20055;-88
2023/08/18 04:11:47;;;;;;;30.98;9.18;;;;;;;25.20;75.01;100662.47;4973060;28;20026;-88
2023/08/18 04:14:14;;;;;;;15.00;10.60;;;;;;;25.17;74.81;100653.81;4973761;28;20027;-88
2023/08/18 04:16:39;;;;;;;15.20;9.07;;;;;;;25.19;74.72;100657.19;4972316;28;20027;-85
2023/08/18 04:19:05;;;;;;;38.08;11.52;;;;;;;25.23;74.62;100661.19;4972460;28;20541;-85
2023/08/18 04:21:30;;;;;;;18.25;8.85;;;;;;;25.20;73.54;100651.47;4987150;28;20679;-87
2023/08/18 04:23:56;;;;;;;17.58;9.30;;;;;;;25.23;73.60;100645.50;4972220;28;20038;-82
2023/08/18 04:26:21;;;;;;;33.92;11.38;;;;;;;25.42;72.91;100665.75;4979886;28;20029;-85
2023/08/18 04:28:47;;;;;;;21.55;9.00;;;;;;;25.38;72.34;100645.25;4976270;28;20022;-88
2023/08/18 04:31:13;;;;;;;23.38;9.45;;;;;;;25.35;71.67;100645.69;4974025;28;20027;-89
2023/08/18 04:33:38;;;;;;;15.88;8.60;;;;;;;25.35;70.58;100643.75;4974172;28;20058;-88
2023/08/18 04:36:04;;;;;;;20.90;7.88;;;;;;;25.48;71.23;100648.34;4973749;28;20113;-88
2023/08/18 04:38:30;;;;;;;26.15;9.88;;;;;;;25.55;70.54;100654.69;4972939;28;20118;-86
2023/08/18 04:41:00;;;;;;;41.38;9.75;;;;;;;25.69;70.51;100667.31;4972127;28;20030;-87
2023/08/18 04:43:27;;;;;;;17.00;8.13;;;;;;;25.75;70.13;100669.16;4971940;28;20082;-80
2023/08/18 04:45:53;;;;;;;28.13;9.57;;;;;;;25.78;69.90;100654.94;4971341;28;20029;-84
2023/08/18 04:48:22;;;;;;;24.05;9.20;;;;;;;25.88;69.46;100674.59;4971411;28;20030;-84
2023/08/18 04:50:48;;;;;;;27.50;9.60;;;;;;;25.89;69.76;100672.69;4971056;28;20558;-85
2023/08/18 04:53:14;;;;;;;13.60;7.40;;;;;;;25.78;68.23;100648.56;4960723;28;20536;-84
2023/08/18 04:55:40;;;;;;;20.17;7.40;;;;;;;25.81;69.29;100662.75;4972106;28;20102;-83
2023/08/18 04:58:09;;;;;;;23.35;9.02;;;;;;;25.84;69.89;100658.75;4971765;28;20031;-88
2023/08/18 05:00:34;;;;;;;26.67;9.85;;;;;;;25.95;70.88;100660.75;4972459;28;20452;-81
2023/08/18 05:03:00;;;;;;;19.73;9.82;;;;;;;25.99;71.13;100662.84;4970972;28;20113;-82
2023/08/18 05:05:25;;;;;;;31.38;8.90;;;;;;;26.02;71.28;100658.81;4971418;28;20088;-83
2023/08/18 05:07:51;;;;;;;14.40;9.43;;;;;;;26.05;71.16;100646.47;4971093;28;20431;-82
2023/08/18 05:10:16;;;;;;;25.10;8.73;;;;;;;26.10;70.57;100663.19;4966966;28;20435;-83
2023/08/18 05:12:42;;;;;;;30.25;9.38;;;;;;;26.01;69.59;100628.69;4953449;29;20572;-88
2023/08/18 05:15:07;;;;;;;22.38;10.07;;;;;;;26.21;68.45;100659.72;4956277;28;20031;-84
2023/08/18 05:17:33;;;;;;;31.90;13.38;;;;;;;26.27;67.12;100669.84;4956762;28;20435;-86
2023/08/18 05:19:59;;;;;;;38.75;14.30;;;;;;;26.30;66.83;100669.38;4960865;28;20090;-86
2023/08/18 05:22:24;;;;;;;28.23;8.40;;;;;;;26.12;66.64;100650.00;4955917;28;20741;-86
2023/08/18 05:24:50;;;;;;;15.93;7.22;;;;;;;26.11;65.27;100660.22;4964467;28;20409;-86
2023/08/18 05:27:16;;;;;;;15.27;7.47;;;;;;;26.16;66.06;100652.13;4964800;28;20114;-88
2023/08/18 05:29:42;;;;;;;34.80;8.38;;;;;;;26.30;64.25;100664.72;4954662;28;20034;-88
2023/08/18 05:32:08;;;;;;;28.63;6.70;;;;;;;26.43;64.18;100685.81;4954974;28;20163;-93
2023/08/18 05:34:33;;;;;;;12.02;6.07;;;;;;;26.34;62.77;100652.16;4952157;29;20034;-89
2023/08/18 05:37:04;;;;;;;22.27;7.05;;;;;;;26.72;62.34;100673.22;4961767;28;20035;-91
2023/08/18 05:39:30;;;;;;;18.00;6.30;;;;;;;26.62;61.18;100654.44;4988438;28;20026;-87
2023/08/18 05:41:59;;;;;;;20.48;6.43;;;;;;;26.87;61.46;100670.97;4971988;28;20038;-89
2023/08/18 05:44:24;;;;;;;29.98;7.13;;;;;;;26.94;61.71;100675.31;4978733;28;20027;-90
2023/08/18 05:46:50;;;;;;;14.57;5.75;;;;;;;27.01;59.25;100678.84;4972892;28;20058;-87
2023/08/18 05:49:15;;;;;;;31.92;9.55;;;;;;;27.22;59.02;100687.72;4972639;28;20023;-89
2023/08/18 05:51:44;;;;;;;18.77;6.55;;;;;;;27.22;59.27;100673.91;4974288;28;20097;-88
2023/08/18 05:54:09;;;;;;;17.88;5.85;;;;;;;27.40;57.78;100687.72;4972734;28;20026;-86
2023/08/18 05:56:35;;;;;;;21.20;6.63;;;;;;;27.54;57.16;100683.72;4971235;28;20498;-88
2023/08/18 05:59:01;;;;;;;11.75;5.15;;;;;;;27.52;56.00;100681.16;4973332;28;20105;-92
2023/08/18 06:01:26;;;;;;;9.48;5.00;;;;;;;27.62;54.07;100683.38;4973570;28;20039;-87
2023/08/18 06:03:52;;;;;;;40.28;8.10;;;;;;;27.50;54.08;100654.84;4972623;28;20042;-88
2023/08/18 06:06:17;;;;;;;14.88;6.22;;;;;;;27.70;53.76;100677.53;4979867;28;20091;-89
2023/08/18 06:08:42;;;;;;;19.42;6.32;;;;;;;27.72;53.24;100669.84;4975913;28;20019;-84
2023/08/18 06:11:08;;;;;;;17.40;5.28;;;;;;;27.85;52.89;100691.75;4973293;28;20031;-90
2023/08/18 06:13:33;;;;;;;12.60;4.53;;;;;;;27.79;51.87;100678.88;4972587;28;20533;-84
2023/08/18 06:16:03;;;;;;;14.48;4.60;;;;;;;27.97;51.48;100695.41;4970375;28;20031;-82
2023/08/18 06:18:28;;;;;;;9.68;4.43;;;;;;;28.07;51.14;100690.13;4970598;28;20062;-87
2023/08/18 06:20:54;;;;;;;25.35;6.03;;;;;;;27.99;51.83;100671.09;4971589;28;20063;-86
2023/08/18 06:23:19;;;;;;;16.13;5.07;;;;;;;28.21;51.19;100701.00;4974976;28;20027;-87
2023/08/18 06:25:45;;;;;;;11.05;4.45;;;;;;;28.22;49.62;100663.97;4991169;28;20392;-90
2023/08/18 06:28:10;;;;;;;10.10;4.57;;;;;;;28.38;48.55;100679.81;4990041;28;20035;-87
2023/08/18 06:30:36;;;;;;;24.27;5.00;;;;;;;28.32;48.81;100680.78;4975710;28;20030;-86
2023/08/18 06:33:02;;;;;;;12.60;4.60;;;;;;;28.50;48.07;100700.06;4974273;28;20469;-86
2023/08/18 06:35:27;;;;;;;135.43;21.02;;;;;;;28.58;47.75;100702.47;4957396;28;20484;-82
2023/08/18 06:37:53;;;;;;;10.90;4.38;;;;;;;28.55;47.99;100680.81;4954272;28;20110;-85
2023/08/18 06:40:19;;;;;;;23.63;5.30;;;;;;;28.61;48.72;100685.38;4972999;28;20438;-93
2023/08/18 06:42:44;;;;;;;18.48;5.78;;;;;;;28.77;48.10;100706.00;4991096;28;20202;-85
2023/08/18 06:45:10;;;;;;;19.25;4.90;;;;;;;28.70;47.56;100683.13;4973909;28;20411;-84
2023/08/18 06:47:35;;;;;;;34.22;5.43;;;;;;;28.67;47.09;100676.16;4973992;28;20027;-91
2023/08/18 06:50:01;;;;;;;18.63;4.85;;;;;;;28.87;47.51;100695.97;4975713;28;20101;-86
2023/08/18 06:52:28;;;;;;;25.13;6.22;;;;;;;29.00;48.50;100712.34;4979155;28;20042;-93
2023/08/18 06:54:53;;;;;;;16.35;4.50;;;;;;;29.06;48.61;100693.91;4983537;28;20045;-87
2023/08/18 06:57:19;;;;;;;35.92;8.02;;;;;;;29.12;48.30;100699.31;4984996;28;20065;-89
2023/08/18 06:59:44;;;;;;;28.33;7.10;;;;;;;29.18;48.20;100687.25;4995511;28;20111;-89
2023/08/18 07:02:10;;;;;;;9.25;4.43;;;;;;;29.39;47.41;100704.31;4959283;28;20039;-82
2023/08/18 07:04:36;;;;;;;32.30;8.73;;;;;;;29.27;47.28;100684.94;4970507;28;20039;-84
2023/08/18 07:07:03;;;;;;;25.92;7.25;;;;;;;29.39;46.31;100687.69;4952885;28;20078;-83
2023/08/18 07:09:28;;;;;;;14.00;5.07;;;;;;;29.48;46.86;100705.63;4968453;28;20126;-82
2023/08/18 07:11:54;;;;;;;24.80;7.82;;;;;;;29.42;47.41;100695.50;4970402;28;20133;-84
2023/08/18 07:14:19;;;;;;;18.52;8.57;;;;;;;29.56;47.77;100699.69;4970532;28;20759;-83
2023/08/18 07:16:45;;;;;;;19.10;4.85;;;;;;;29.57;47.46;100681.97;4941147;28;20117;-84
2023/08/18 07:19:10;;;;;;;15.52;6.47;;;;;;;29.75;47.15;100694.78;4961358;28;20039;-85
2023/08/18 07:21:36;;;;;;;22.02;6.07;;;;;;;29.75;45.88;100681.75;4951075;29;20059;-89
2023/08/18 07:24:03;;;;;;;22.00;5.35;;;;;;;29.92;45.06;100692.88;4969329;28;20027;-83
2023/08/18 07:26:28;;;;;;;18.70;5.05;;;;;;;30.01;45.36;100695.00;4956215;28;20043;-81
2023/08/18 07:28:54;;;;;;;11.63;3.75;;;;;;;30.08;44.07;100706.78;4960732;28;20042;-87
2023/08/18 07:31:19;;;;;;;19.48;6.47;;;;;;;29.98;44.59;100687.19;4970207;28;20038;-84
2023/08/18 07:33:45;;;;;;;21.58;4.22;;;;;;;30.19;42.28;100700.31;4969512;28;20070;-86
2023/08/18 07:36:10;;;;;;;16.17;5.15;;;;;;;30.17;42.21;100696.97;4972946;28;20146;-87
2023/08/18 07:38:36;;;;;;;25.77;5.60;;;;;;;30.28;41.78;100697.97;4957388;28;20477;-83
2023/08/18 07:41:02;;;;;;;11.15;3.97;;;;;;;30.31;42.14;100702.16;4952908;28;20031;-82
2023/08/18 07:43:27;;;;;;;14.18;4.40;;;;;;;30.38;43.20;100697.28;4966099;28;20038;-81
2023/08/18 07:45:53;;;;;;;12.70;4.43;;;;;;;30.40;43.16;100689.56;4972440;28;20478;-86
2023/08/18 07:48:18;;;;;;;17.80;5.32;;;;;;;30.41;43.98;100691.25;4970505;28;20027;-80
2023/08/18 07:50:44;;;;;;;36.85;5.70;;;;;;;30.53;43.17;100700.34;4971793;28;20446;-84
2023/08/18 07:53:09;;;;;;;10.80;4.72;;;;;;;30.55;42.82;100695.38;4973283;28;20502;-90
2023/08/18 07:55:38;;;;;;;52.70;7.40;;;;;;;30.41;43.59;100674.59;4974749;28;20054;-82
2023/08/18 07:58:04;;;;;;;13.25;4.43;;;;;;;30.66;42.48;100708.31;4964649;28;20029;-83
2023/08/18 08:00:30;;;;;;;26.58;5.85;;;;;;;30.77;42.90;100718.47;4952492;28;20035;-82
2023/08/18 08:02:57;;;;;;;15.95;5.68;;;;;;;30.87;41.42;100715.84;4953408;28;20039;-83
2023/08/18 08:05:23;;;;;;;17.77;4.90;;;;;;;30.94;40.31;100724.00;4954998;28;20467;-81
2023/08/18 08:07:50;;;;;;;19.15;4.35;;;;;;;30.98;38.71;100720.47;4964113;28;20039;-86
2023/08/18 08:10:16;;;;;;;17.23;4.40;;;;;;;31.07;39.32;100721.72;4972712;28;20104;-82
2023/08/18 08:12:43;;;;;;;10.57;3.95;;;;;;;31.12;38.98;100732.91;4972532;28;20054;-78
2023/08/18 08:15:10;;;;;;;15.15;3.78;;;;;;;31.20;40.64;100732.47;4967836;28;20058;-79
2023/08/18 08:17:36;;;;;;;16.55;4.60;;;;;;;31.21;40.19;100714.69;4963139;28;20101;-79
2023/08/18 08:20:19;;;;;;;20.98;6.28;;;;;;;31.40;40.24;100725.50;4972443;28;20523;-80
2023/08/18 08:22:46;;;;;;;11.27;3.70;;;;;;;31.34;39.26;100696.78;4969769;28;20061;-83
2023/08/18 08:25:13;;;;;;;17.92;4.18;;;;;;;31.40;37.22;100708.81;4971749;28;20034;-80
2023/08/18 08:27:38;;;;;;;20.17;3.95;;;;;;;31.52;38.04;100709.53;4970812;28;20065;-79
2023/08/18 08:30:06;;;;;;;13.25;4.40;;;;;;;31.42;38.08;100726.06;4958021;28;20484;-80
2023/08/18 08:32:32;;;;;;;22.67;4.78;;;;;;;31.48;38.09;100719.47;4963183;28;20027;-82
2023/08/18 08:34:57;;;;;;;13.10;4.45;;;;;;;31.47;38.37;100724.19;4973334;28;20038;-90
2023/08/18 08:37:22;;;;;;;21.33;5.15;;;;;;;31.54;38.53;100713.72;4971766;28;20122;-87
2023/08/18 08:39:48;;;;;;;19.50;5.05;;;;;;;31.62;37.66;100718.00;4972158;28;20049;-89
2023/08/18 08:42:13;;;;;;;29.50;8.93;;;;;;;31.67;38.50;100706.94;4970637;28;20093;-79
2023/08/18 08:44:39;;;;;;;13.23;4.22;;;;;;;31.78;37.20;100709.56;4970246;28;20481;-77
2023/08/18 08:47:08;;;;;;;8.82;4.45;;;;;;;31.89;37.96;100716.06;4972048;28;20027;-85
2023/08/18 08:49:35;;;;;;;9.07;3.90;;;;;;;31.99;38.06;100709.75;4970992;28;20038;-82
2023/08/18 08:52:07;;;;;;;17.58;5.03;;;;;;;31.95;37.97;100694.69;4973238;28;20483;-83
2023/08/18 08:54:38;;;;;;;10.55;4.60;;;;;;;31.97;38.33;100698.03;4965927;28;20062;-90
2023/08/18 08:57:10;;;;;;;13.90;4.18;;;;;;;31.85;37.66;100661.22;4956701;28;20134;-82
2023/08/18 08:59:36;;;;;;;;;;;;;;;32.23;38.48;100705.56;4952285;28;20039;-85
2023/08/18 09:02:03;;;;;;;7.28;4.10;;;;;;;32.11;37.79;100691.00;4961946;28;20630;-82
2023/08/18 09:04:28;;;;;;;19.73;4.93;;;;;;;32.23;37.47;100697.22;4969887;28;20038;-86
2023/08/18 09:06:55;;;;;;;21.30;4.10;;;;;;;32.10;37.20;100695.72;4960312;28;20089;-83
2023/08/18 09:09:20;;;;;;;9.70;3.88;;;;;;;32.14;37.60;100669.00;4964350;28;20054;-85
2023/08/18 09:11:47;;;;;;;12.70;5.47;;;;;;;32.39;37.73;100700.94;4969357;28;20533;-85
2023/08/18 09:14:13;;;;;;;16.75;3.88;;;;;;;32.48;38.25;100690.97;4940670;28;20577;-83
2023/08/18 09:16:39;;;;;;;10.95;4.22;;;;;;;32.44;38.18;100687.06;4958468;28;20043;-86
2023/08/18 09:19:05;;;;;;;28.20;4.32;;;;;;;32.50;37.91;100689.63;4960489;28;20188;-85
2023/08/18 09:21:33;;;;;;;10.50;4.63;;;;;;;32.67;37.67;100692.28;4949166;28;20103;-93
2023/08/18 09:23:58;;;;;;;9.77;4.15;;;;;;;32.80;36.64;100700.16;4960421;28;20727;-84
2023/08/18 09:26:25;;;;;;;22.30;4.22;;;;;;;32.80;36.81;100695.44;4949288;28;20118;-84
2023/08/18 09:28:51;;;;;;;12.57;3.60;;;;;;;32.85;37.58;100691.81;4951481;29;20043;-87
2023/08/18 09:31:18;;;;;;;15.45;4.55;;;;;;;32.92;35.49;100692.44;4951719;28;20027;-86
2023/08/18 09:33:43;;;;;;;12.85;3.88;;;;;;;32.99;35.91;100693.03;4952584;28;20027;-87
2023/08/18 09:36:12;;;;;;;12.13;3.92;;;;;;;33.02;36.25;100692.50;4951395;28;20093;-81
2023/08/18 09:38:40;;;;;;;11.05;4.65;;;;;;;32.96;36.04;100690.78;4951614;28;20090;-82
2023/08/18 09:41:07;;;;;;;6.40;3.28;;;;;;;33.07;36.65;100684.16;4953390;28;20035;-84
2023/08/18 09:43:33;;;;;;;14.88;3.72;;;;;;;33.11;37.49;100678.91;4959247;28;20027;-85
2023/08/18 09:45:59;;;;;;;16.08;4.65;;;;;;;33.15;37.25;100674.47;4978764;28;20019;-80
2023/08/18 09:48:26;;;;;;;18.83;4.00;;;;;;;33.19;37.22;100653.28;4973264;28;20064;-87
2023/08/18 09:50:57;;;;;;;23.27;3.90;;;;;;;33.29;37.96;100676.47;4974426;28;20051;-86
2023/08/18 09:53:29;;;;;;;15.70;3.95;;;;;;;33.16;38.79;100671.41;4972232;28;20583;-83
2023/08/18 09:55:59;;;;;;;19.10;4.60;;;;;;;33.22;39.79;100680.59;4970055;28;20030;-83
2023/08/18 09:58:34;;;;;;;28.73;5.10;;;;;;;33.18;40.88;100691.47;4970512;28;20027;-84
2023/08/18 10:01:02;;;;;;;20.80;4.75;;;;;;;33.09;40.71;100676.38;4970882;28;20027;-86
2023/08/18 10:03:31;;;;;;;20.50;4.10;;;;;;;33.09;41.49;100707.03;4971023;28;20466;-86
2023/08/18 10:05:57;;;;;;;28.77;4.97;;;;;;;32.78;42.45;100669.78;4972065;28;20026;-83
2023/08/18 10:08:22;;;;;;;15.75;5.03;;;;;;;32.94;41.96;100684.63;4970936;28;20034;-83
2023/08/18 10:10:49;;;;;;;22.67;3.97;;;;;;;32.78;44.10;100696.81;4972061;28;20031;-82
2023/08/18 10:13:15;;;;;;;21.83;5.15;;;;;;;32.76;45.29;100715.72;4970618;28;20499;-83
2023/08/18 10:15:42;;;;;;;17.52;4.75;;;;;;;32.58;45.92;100699.44;4970485;28;20042;-85
2023/08/18 10:18:09;;;;;;;20.85;5.97;;;;;;;32.62;45.68;100695.03;4971762;28;20126;-86
2023/08/18 10:20:35;;;;;;;17.58;4.88;;;;;;;32.66;45.67;100715.69;4970698;28;20047;-85
2023/08/18 10:23:02;;;;;;;19.70;3.95;;;;;;;32.67;45.37;100704.25;4970843;28;20038;-87
2023/08/18 10:25:35;;;;;;;22.35;4.80;;;;;;;32.66;45.38;100708.13;4969367;28;20035;-88
2023/08/18 10:28:06;;;;;;;17.67;4.15;;;;;;;32.60;44.78;100706.44;4972171;28;20030;-86
2023/08/18 10:30:31;;;;;;;14.93;4.45;;;;;;;32.63;44.29;100699.50;4974042;28;20082;-82
2023/08/18 10:33:03;;;;;;;11.82;3.65;;;;;;;32.53;44.90;100699.41;4972001;28;20058;-83
2023/08/18 10:35:29;;;;;;;17.25;4.38;;;;;;;32.45;43.94;100719.38;4971427;28;20031;-84
2023/08/18 10:38:00;;;;;;;13.75;4.40;;;;;;;32.55;42.04;100733.38;4970425;28;20085;-81
2023/08/18 10:40:29;;;;;;;75.65;13.23;;;;;;;32.64;41.43;100724.28;4976021;28;20199;-82
2023/08/18 10:43:14;;;;;;;21.02;3.50;;;;;;;32.58;38.35;100710.59;4974510;28;20027;-88
2023/08/18 10:45:46;;;;;;;33.53;4.80;;;;;;;32.63;38.39;100736.53;4973088;28;20100;-83
2023/08/18 10:48:11;;;;;;;12.40;3.72;;;;;;;32.66;37.87;100722.06;4972198;28;20034;-82
2023/08/18 10:50:40;;;;;;;14.85;5.47;;;;;;;32.66;38.22;100701.75;4970532;28;20030;-89
2023/08/18 10:53:07;;;;;;;16.65;3.72;;;;;;;32.69;38.85;100721.53;4971325;28;20030;-89
2023/08/18 10:55:33;;;;;;;17.00;3.50;;;;;;;32.82;38.34;100721.06;4971344;28;20030;-87
2023/08/18 10:57:59;;;;;;;10.43;3.13;;;;;;;32.89;38.21;100718.06;4971604;28;20093;-86
2023/08/18 11:00:24;;;;;;;12.52;3.80;;;;;;;33.01;38.27;100729.81;4972552;28;20031;-89
2023/08/18 11:02:51;;;;;;;12.35;4.40;;;;;;;33.16;38.27;100727.16;4971750;28;20458;-78
2023/08/18 11:05:18;;;;;;;23.02;5.00;;;;;;;33.19;38.01;100715.47;4970274;28;20075;-80
2023/08/18 11:07:44;;;;;;;11.90;3.33;;;;;;;33.36;37.39;100709.69;4971337;28;20031;-81
2023/08/18 11:10:15;;;;;;;11.50;3.58;;;;;;;33.30;36.70;100710.78;4973664;28;20601;-81
2023/08/18 11:12:42;;;;;;;22.70;4.50;;;;;;;33.21;37.06;100713.22;4974090;28;20023;-80
2023/08/18 11:15:07;;;;;;;17.77;3.90;;;;;;;33.03;37.78;100699.72;4978271;28;20258;-90